Zapata, Texas
Current Conditions -  °F | °C
As of 1:15 PM on Friday 28 Nov 2014 (Local Time) from KAPY Reporting Station
Clear Clear  
Wind Chill: 72°   Ceiling: Unl
Heat Index: 72°   Visibility: 10mi
Dew Point: 49°   Wind: 8mph
Humidity: 44%   Direction: 160°SSE
Pressure: 30.19"   Gusts: 16mph
Location:  26.91°N, 99.27°W
Report Text: KAPY 281915Z AUTO 16007G14KT 120V200 10SM CLR 22/09 A3019 RMK AO2 T02230095
Loading
Personal Weather Stations






























Interactive Weather Map New forecast layout! Learn more

10-Day Weather Forecast

Advertisements
Track Severe Weather on mobile